createdAt,value
2023-05-09T00:02:26.029Z,7.57
2023-05-09T00:04:53.789Z,7.30
2023-05-09T00:07:25.024Z,8.38
2023-05-09T00:09:57.163Z,7.38
2023-05-09T00:12:25.315Z,7.07
2023-05-09T00:14:52.009Z,8.18
2023-05-09T00:17:22.929Z,7.70
2023-05-09T00:19:52.733Z,8.10
2023-05-09T00:22:24.307Z,8.07
2023-05-09T00:24:51.233Z,7.70
2023-05-09T00:27:18.239Z,7.43
2023-05-09T00:29:50.171Z,8.30
2023-05-09T00:32:20.672Z,7.53
2023-05-09T00:34:49.825Z,7.78
2023-05-09T00:37:21.336Z,7.43
2023-05-09T00:39:53.215Z,7.70
2023-05-09T00:42:25.848Z,6.88
2023-05-09T00:44:52.545Z,7.90
2023-05-09T00:47:29.533Z,8.15
2023-05-09T00:50:06.007Z,7.18
2023-05-09T00:52:37.969Z,7.05
2023-05-09T00:55:08.310Z,7.72
2023-05-09T00:57:35.433Z,8.50
2023-05-09T01:00:15.324Z,7.90
2023-05-09T01:03:19.095Z,8.18
2023-05-09T01:05:56.611Z,7.97
2023-05-09T01:09:11.285Z,7.90
2023-05-09T01:11:55.247Z,7.80
2023-05-09T01:14:54.870Z,7.60
2023-05-09T01:17:41.046Z,7.40
2023-05-09T01:23:12.575Z,6.55
2023-05-09T01:26:42.476Z,6.85
2023-05-09T01:29:54.946Z,7.07
2023-05-09T01:32:43.271Z,7.20
2023-05-09T01:35:14.679Z,7.00
2023-05-09T01:37:44.676Z,8.13
2023-05-09T01:40:15.007Z,7.72
2023-05-09T01:42:45.497Z,7.13
2023-05-09T01:45:14.490Z,7.53
2023-05-09T01:47:42.017Z,7.93
2023-05-09T01:50:12.054Z,7.78
2023-05-09T01:52:41.555Z,7.65
2023-05-09T01:55:09.880Z,7.43
2023-05-09T01:57:37.460Z,6.95
2023-05-09T02:00:07.968Z,7.30
2023-05-09T02:02:35.348Z,7.82
2023-05-09T02:05:02.664Z,7.70
2023-05-09T02:07:30.177Z,7.40
2023-05-09T02:09:58.361Z,7.35
2023-05-09T02:12:25.154Z,7.20
2023-05-09T02:14:51.875Z,8.15
2023-05-09T02:17:19.311Z,7.60
2023-05-09T02:19:46.030Z,7.70
2023-05-09T02:22:13.545Z,7.75
2023-05-09T02:24:41.352Z,7.55
2023-05-09T02:27:10.534Z,8.38
2023-05-09T02:29:50.608Z,7.88
2023-05-09T02:32:23.498Z,7.32
2023-05-09T02:34:53.071Z,7.53
2023-05-09T02:37:20.698Z,7.47
2023-05-09T02:39:47.888Z,7.57
2023-05-09T02:42:25.227Z,7.95
2023-05-09T02:44:52.913Z,7.80
2023-05-09T02:47:19.965Z,7.93
2023-05-09T02:49:46.551Z,7.45
2023-05-09T02:52:13.125Z,7.72
2023-05-09T02:54:39.947Z,7.40
2023-05-09T02:57:06.875Z,7.75
2023-05-09T02:59:33.773Z,7.88
2023-05-09T03:02:00.381Z,7.57
2023-05-09T03:04:27.309Z,7.53
2023-05-09T03:06:54.003Z,8.10
2023-05-09T03:09:20.576Z,6.95
2023-05-09T03:11:47.166Z,7.70
2023-05-09T03:14:14.958Z,7.65
2023-05-09T03:16:41.875Z,7.03
2023-05-09T03:19:08.629Z,8.02
2023-05-09T03:21:35.170Z,7.35
2023-05-09T03:24:01.956Z,7.65
2023-05-09T03:26:28.490Z,7.28
2023-05-09T03:28:55.012Z,8.05
2023-05-09T03:31:21.650Z,7.47
2023-05-09T03:33:48.330Z,7.70
2023-05-09T03:36:14.902Z,8.20
2023-05-09T03:38:41.561Z,7.82
2023-05-09T03:41:08.113Z,7.22
2023-05-09T03:43:34.716Z,7.45
2023-05-09T03:46:01.323Z,7.72
2023-05-09T03:48:27.831Z,7.57
2023-05-09T03:50:54.492Z,7.40
2023-05-09T03:53:21.065Z,7.03
2023-05-09T03:55:47.824Z,7.43
2023-05-09T03:58:14.932Z,7.28
2023-05-09T04:00:41.969Z,7.35
2023-05-09T04:03:08.703Z,6.90
2023-05-09T04:05:35.495Z,7.95
2023-05-09T04:08:02.977Z,7.88
2023-05-09T04:10:30.768Z,7.30
2023-05-09T04:12:57.508Z,7.40
2023-05-09T04:15:24.160Z,7.63
2023-05-09T04:17:50.863Z,7.63
2023-05-09T04:20:17.568Z,6.95
2023-05-09T04:22:46.090Z,7.43
2023-05-09T04:25:14.966Z,7.38
2023-05-09T04:27:41.653Z,7.20
2023-05-09T04:30:09.421Z,7.10
2023-05-09T04:32:36.853Z,6.93
2023-05-09T04:35:04.201Z,7.68
2023-05-09T04:37:31.608Z,8.10
2023-05-09T04:39:58.614Z,8.05
2023-05-09T04:42:25.196Z,7.28
2023-05-09T04:44:51.802Z,6.40
2023-05-09T04:47:18.388Z,7.25
2023-05-09T04:49:44.936Z,7.85
2023-05-09T04:52:11.506Z,7.55
2023-05-09T04:54:38.049Z,6.88
2023-05-09T04:57:17.146Z,6.95
2023-05-09T04:59:45.367Z,6.78
2023-05-09T05:02:13.049Z,6.90
2023-05-09T05:04:39.805Z,7.20
2023-05-09T05:07:06.497Z,6.85
2023-05-09T05:09:33.097Z,6.60
2023-05-09T05:12:02.295Z,7.10
2023-05-09T05:14:29.167Z,7.15
2023-05-09T05:16:55.782Z,6.60
2023-05-09T05:19:22.296Z,6.25
2023-05-09T05:21:48.883Z,6.28
2023-05-09T05:24:15.458Z,6.55
2023-05-09T05:26:42.060Z,6.07
2023-05-09T05:29:08.842Z,6.40
2023-05-09T05:31:36.354Z,6.70
2023-05-09T05:34:03.135Z,5.88
2023-05-09T05:36:29.729Z,6.15
2023-05-09T05:38:56.282Z,6.68
2023-05-09T05:41:23.500Z,6.05
2023-05-09T05:43:51.120Z,6.25
2023-05-09T05:46:19.524Z,6.22
2023-05-09T05:48:46.169Z,6.70
2023-05-09T05:51:12.709Z,6.35
2023-05-09T05:53:39.260Z,6.50
2023-05-09T05:56:06.108Z,6.50
2023-05-09T05:58:32.712Z,6.05
2023-05-09T06:00:59.244Z,6.00
2023-05-09T06:03:26.090Z,6.03
2023-05-09T06:05:52.972Z,6.30
2023-05-09T06:08:19.528Z,5.50
2023-05-09T06:10:46.113Z,5.93
2023-05-09T06:13:12.758Z,5.72
2023-05-09T06:15:39.411Z,5.65
2023-05-09T06:18:06.032Z,5.95
2023-05-09T06:20:32.860Z,5.05
2023-05-09T06:22:59.481Z,5.60
2023-05-09T06:25:26.013Z,5.30
2023-05-09T06:27:52.581Z,5.15
2023-05-09T06:30:26.477Z,5.28
2023-05-09T06:32:54.803Z,4.72
2023-05-09T06:35:21.847Z,5.13
2023-05-09T06:37:49.173Z,4.40
2023-05-09T06:40:16.938Z,4.65
2023-05-09T06:42:43.726Z,4.40
2023-05-09T06:45:10.884Z,4.18
2023-05-09T06:47:37.511Z,3.85
2023-05-09T06:50:04.504Z,3.95
2023-05-09T06:52:31.256Z,3.95
2023-05-09T06:54:57.807Z,4.07
2023-05-09T06:57:24.426Z,3.78
2023-05-09T06:59:51.093Z,4.10
2023-05-09T07:02:17.715Z,3.60
2023-05-09T07:04:44.345Z,3.83
2023-05-09T07:07:10.894Z,3.78
2023-05-09T07:09:37.654Z,3.60
2023-05-09T07:12:04.604Z,3.70
2023-05-09T07:14:31.160Z,3.80
2023-05-09T07:17:09.856Z,3.55
2023-05-09T07:19:44.262Z,3.55
2023-05-09T07:22:10.944Z,3.17
2023-05-09T07:24:37.544Z,3.83
2023-05-09T07:27:04.213Z,3.67
2023-05-09T07:29:30.800Z,3.38
2023-05-09T07:31:57.487Z,3.92
2023-05-09T07:34:25.487Z,3.35
2023-05-09T07:36:52.222Z,3.30
2023-05-09T07:39:18.904Z,3.25
2023-05-09T07:41:46.425Z,3.28
2023-05-09T07:44:15.036Z,3.30
2023-05-09T07:46:42.211Z,3.10
2023-05-09T07:49:09.206Z,2.97
2023-05-09T07:51:35.968Z,3.22
2023-05-09T07:54:02.616Z,3.35
2023-05-09T07:56:29.220Z,3.40
2023-05-09T07:58:56.014Z,2.95
2023-05-09T08:01:22.581Z,3.05
2023-05-09T08:03:49.290Z,3.00
2023-05-09T08:06:15.994Z,2.88
2023-05-09T08:08:42.567Z,2.97
2023-05-09T08:11:09.089Z,2.88
2023-05-09T08:13:35.655Z,2.88
2023-05-09T08:16:02.801Z,2.78
2023-05-09T08:18:29.542Z,2.95
2023-05-09T08:20:56.232Z,2.58
2023-05-09T08:23:22.806Z,2.90
2023-05-09T08:25:53.277Z,3.00
2023-05-09T08:28:20.743Z,2.67
2023-05-09T08:30:47.504Z,2.72
2023-05-09T08:33:14.099Z,2.80
2023-05-09T08:35:40.828Z,3.03
2023-05-09T08:38:07.415Z,2.83
2023-05-09T08:40:40.574Z,2.78
2023-05-09T08:43:07.922Z,2.60
2023-05-09T08:45:51.448Z,2.60
2023-05-09T08:48:19.073Z,3.08
2023-05-09T08:50:45.832Z,2.72
2023-05-09T08:53:12.696Z,2.78
2023-05-09T08:55:39.666Z,2.50
2023-05-09T08:58:07.164Z,2.78
2023-05-09T09:00:34.594Z,2.33
2023-05-09T09:03:03.444Z,2.53
2023-05-09T09:05:41.837Z,2.80
2023-05-09T09:08:11.110Z,2.63
2023-05-09T09:10:47.312Z,2.40
2023-05-09T09:13:15.707Z,2.83
2023-05-09T09:15:45.168Z,2.40
2023-05-09T09:18:16.281Z,2.30
2023-05-09T09:20:51.182Z,2.40
2023-05-09T09:23:20.624Z,2.08
2023-05-09T09:25:48.419Z,2.38
2023-05-09T09:28:15.508Z,2.40
2023-05-09T09:30:47.555Z,2.40
2023-05-09T09:33:21.507Z,2.58
2023-05-09T09:35:52.514Z,2.70
2023-05-09T09:38:20.710Z,2.17
2023-05-09T09:40:52.987Z,2.38
2023-05-09T09:43:19.656Z,2.33
2023-05-09T09:45:51.062Z,2.40
2023-05-09T09:48:17.735Z,2.10
2023-05-09T09:50:47.261Z,2.17
2023-05-09T09:53:13.785Z,2.30
2023-05-09T09:55:50.360Z,2.10
2023-05-09T09:58:18.587Z,2.15
2023-05-09T10:00:46.255Z,2.05
2023-05-09T10:03:16.911Z,2.20
2023-05-09T10:05:43.660Z,2.15
2023-05-09T10:08:10.753Z,2.25
2023-05-09T10:10:38.178Z,1.80
2023-05-09T10:13:08.037Z,2.05
2023-05-09T10:15:45.510Z,1.90
2023-05-09T10:18:25.263Z,1.98
2023-05-09T10:20:53.280Z,1.77
2023-05-09T10:23:20.928Z,2.08
2023-05-09T10:26:17.754Z,2.08
2023-05-09T10:28:49.234Z,1.92
2023-05-09T10:31:32.560Z,1.73
2023-05-09T10:34:05.465Z,1.88
2023-05-09T10:36:32.670Z,1.85
2023-05-09T10:39:00.466Z,1.73
2023-05-09T10:41:27.876Z,1.88
2023-05-09T10:43:57.259Z,1.83
2023-05-09T10:46:24.974Z,1.95
2023-05-09T10:48:52.490Z,1.90
2023-05-09T10:51:19.237Z,1.70
2023-05-09T10:53:48.563Z,1.70
2023-05-09T10:56:32.302Z,1.77
2023-05-09T10:59:00.150Z,1.80
2023-05-09T11:01:39.080Z,1.80
2023-05-09T11:04:14.557Z,1.70
2023-05-09T11:06:41.764Z,1.75
2023-05-09T11:09:32.721Z,1.70
2023-05-09T11:12:10.111Z,1.58
2023-05-09T11:14:48.684Z,1.60
2023-05-09T11:17:21.817Z,1.60
2023-05-09T11:19:49.104Z,1.60
2023-05-09T11:22:19.663Z,1.60
2023-05-09T11:24:47.614Z,1.60
2023-05-09T11:27:20.580Z,1.55
2023-05-09T11:29:55.923Z,1.50
2023-05-09T11:32:28.549Z,1.52
2023-05-09T11:35:22.551Z,1.60
2023-05-09T11:37:52.879Z,1.30
2023-05-09T11:40:21.750Z,1.40
2023-05-09T11:42:56.208Z,1.40
2023-05-09T11:45:27.448Z,1.67
2023-05-09T11:47:54.598Z,1.48
2023-05-09T11:50:21.683Z,1.48
2023-05-09T11:52:49.087Z,1.58
2023-05-09T11:55:22.695Z,1.40
2023-05-09T11:57:54.380Z,1.50
2023-05-09T12:00:23.501Z,1.20
2023-05-09T12:02:51.507Z,1.80
2023-05-09T12:05:20.059Z,1.15
2023-05-09T12:07:47.482Z,1.40
2023-05-09T12:10:20.125Z,1.15
2023-05-09T12:12:50.796Z,1.30
2023-05-09T12:15:18.607Z,1.48
2023-05-09T12:17:47.398Z,1.52
2023-05-09T12:20:15.844Z,1.10
2023-05-09T12:22:43.795Z,1.30
2023-05-09T12:25:11.915Z,1.30
2023-05-09T12:27:41.727Z,1.30
2023-05-09T12:30:10.934Z,1.27
2023-05-09T12:32:40.376Z,1.20
2023-05-09T12:35:09.602Z,1.20
2023-05-09T12:37:36.490Z,1.35
2023-05-09T12:40:08.674Z,1.20
2023-05-09T12:42:36.072Z,1.20
2023-05-09T12:45:04.230Z,1.30
2023-05-09T12:47:31.898Z,1.30
2023-05-09T12:49:59.750Z,1.30
2023-05-09T12:52:33.255Z,1.20
2023-05-09T12:55:07.046Z,1.10
2023-05-09T12:57:33.755Z,1.10
2023-05-09T13:00:01.720Z,1.25
2023-05-09T13:02:28.791Z,1.13
2023-05-09T13:05:12.811Z,1.25
2023-05-09T13:07:45.257Z,1.10
2023-05-09T13:10:15.429Z,1.20
2023-05-09T13:12:45.368Z,1.00
2023-05-09T13:15:12.312Z,1.17
2023-05-09T13:17:39.008Z,1.20
2023-05-09T13:20:06.287Z,1.08
2023-05-09T13:22:33.218Z,0.93
2023-05-09T13:24:59.980Z,1.10
2023-05-09T13:27:27.922Z,1.25
2023-05-09T13:29:54.464Z,1.00
2023-05-09T13:32:21.191Z,1.10
2023-05-09T13:34:47.775Z,1.00
2023-05-09T13:37:14.339Z,0.95
2023-05-09T13:39:40.957Z,1.15
2023-05-09T13:42:07.765Z,0.95
2023-05-09T13:44:34.350Z,0.98
2023-05-09T13:47:01.041Z,0.85
2023-05-09T13:49:30.648Z,0.90
2023-05-09T13:51:57.344Z,0.75
2023-05-09T13:54:23.855Z,0.95
2023-05-09T13:56:51.312Z,1.10
2023-05-09T13:59:17.876Z,0.80
2023-05-09T14:01:44.688Z,1.00
2023-05-09T14:04:11.332Z,0.80
2023-05-09T14:06:37.887Z,0.93
2023-05-09T14:09:04.455Z,0.85
2023-05-09T14:11:31.134Z,0.93
2023-05-09T14:13:57.677Z,0.85
2023-05-09T14:16:24.410Z,0.80
2023-05-09T14:18:50.995Z,0.80
2023-05-09T14:21:17.544Z,0.90
2023-05-09T14:23:44.080Z,0.90
2023-05-09T14:26:10.692Z,0.80
2023-05-09T14:28:38.205Z,0.90
2023-05-09T14:31:05.004Z,0.90
2023-05-09T14:33:32.813Z,1.00
2023-05-09T14:36:01.194Z,0.82
2023-05-09T14:38:27.755Z,1.00
2023-05-09T14:40:54.435Z,0.80
2023-05-09T14:43:22.277Z,0.80
2023-05-09T14:45:48.895Z,1.05
2023-05-09T14:48:16.272Z,0.80
2023-05-09T14:50:42.894Z,0.73
2023-05-09T14:53:11.082Z,0.68
2023-05-09T14:55:37.739Z,0.70
2023-05-09T14:58:04.329Z,0.90
2023-05-09T15:00:30.962Z,1.13
2023-05-09T15:02:57.761Z,0.70
2023-05-09T15:05:24.570Z,0.60
2023-05-09T15:07:51.100Z,0.77
2023-05-09T15:10:17.874Z,0.80
2023-05-09T15:12:44.875Z,0.50
2023-05-09T15:15:15.886Z,0.70
2023-05-09T15:17:44.123Z,0.80
2023-05-09T15:20:15.442Z,0.80
2023-05-09T15:22:42.412Z,0.60
2023-05-09T15:25:09.524Z,0.80
2023-05-09T15:27:36.442Z,0.60
2023-05-09T15:30:03.989Z,0.60
2023-05-09T15:32:30.615Z,0.60
2023-05-09T15:34:57.199Z,0.77
2023-05-09T15:37:23.928Z,0.80
2023-05-09T15:39:50.563Z,0.63
2023-05-09T15:42:19.070Z,0.80
2023-05-09T15:44:47.234Z,0.60
2023-05-09T15:47:13.876Z,0.80
2023-05-09T15:49:40.697Z,0.70
2023-05-09T15:52:08.357Z,0.60
2023-05-09T15:54:35.941Z,0.70
2023-05-09T15:57:03.739Z,0.50
2023-05-09T15:59:30.545Z,0.60
2023-05-09T16:01:57.177Z,0.57
2023-05-09T16:04:24.529Z,0.70
2023-05-09T16:06:51.822Z,0.80
2023-05-09T16:09:19.428Z,0.80
2023-05-09T16:11:46.011Z,0.73
2023-05-09T16:14:13.054Z,0.52
2023-05-09T16:16:40.628Z,0.60
2023-05-09T16:19:07.305Z,0.75
2023-05-09T16:21:34.269Z,0.73
2023-05-09T16:24:03.111Z,0.70
2023-05-09T16:26:29.811Z,0.90
2023-05-09T16:28:56.419Z,0.82
2023-05-09T16:31:27.419Z,0.80
2023-05-09T16:33:54.341Z,1.00
2023-05-09T16:36:22.027Z,0.90
2023-05-09T16:38:48.755Z,1.10
2023-05-09T16:41:15.960Z,1.42
2023-05-09T16:43:42.765Z,1.75
2023-05-09T16:46:09.609Z,1.95
2023-05-09T16:48:36.282Z,2.40
2023-05-09T16:51:03.305Z,2.40
2023-05-09T16:53:29.887Z,2.63
2023-05-09T16:55:56.883Z,3.15
2023-05-09T16:58:23.724Z,3.22
2023-05-09T17:00:50.885Z,3.20
2023-05-09T17:03:17.591Z,3.03
2023-05-09T17:05:44.266Z,3.00
2023-05-09T17:08:11.464Z,4.65
2023-05-09T17:10:39.487Z,3.72
2023-05-09T17:13:08.831Z,3.42
2023-05-09T17:15:35.772Z,3.35
2023-05-09T17:18:03.174Z,3.47
2023-05-09T17:20:30.099Z,3.88
2023-05-09T17:22:57.769Z,3.50
2023-05-09T17:25:24.358Z,3.20
2023-05-09T17:27:50.881Z,4.10
2023-05-09T17:30:18.366Z,3.80
2023-05-09T17:32:46.774Z,3.03
2023-05-09T17:35:13.846Z,2.95
2023-05-09T17:37:40.944Z,3.22
2023-05-09T17:40:08.072Z,2.90
2023-05-09T17:42:34.784Z,2.75
2023-05-09T17:45:01.294Z,2.38
2023-05-09T17:47:28.883Z,3.25
2023-05-09T17:49:55.592Z,3.00
2023-05-09T17:52:22.156Z,2.58
2023-05-09T17:54:48.861Z,2.25
2023-05-09T17:57:15.396Z,2.42
2023-05-09T17:59:42.036Z,2.38
2023-05-09T18:02:08.703Z,2.30
2023-05-09T18:04:35.460Z,2.00
2023-05-09T18:07:02.230Z,2.33
2023-05-09T18:09:28.802Z,2.28
2023-05-09T18:11:55.377Z,2.45
2023-05-09T18:14:21.925Z,2.28
2023-05-09T18:16:48.484Z,2.05
2023-05-09T18:19:15.024Z,2.35
2023-05-09T18:21:41.600Z,1.90
2023-05-09T18:24:09.317Z,2.47
2023-05-09T18:26:36.041Z,1.90
2023-05-09T18:29:02.685Z,2.05
2023-05-09T18:31:31.231Z,1.85
2023-05-09T18:33:57.884Z,1.98
2023-05-09T18:36:24.518Z,1.58
2023-05-09T18:38:51.078Z,1.90
2023-05-09T18:41:17.623Z,1.70
2023-05-09T18:43:46.942Z,2.00
2023-05-09T18:46:20.896Z,1.60
2023-05-09T18:48:50.386Z,1.73
2023-05-09T18:51:18.261Z,1.55
2023-05-09T18:53:45.042Z,1.42
2023-05-09T18:56:11.598Z,1.50
2023-05-09T18:58:38.250Z,1.55
2023-05-09T19:01:05.599Z,2.03
2023-05-09T19:03:32.273Z,1.45
2023-05-09T19:05:59.780Z,1.60
2023-05-09T19:08:26.998Z,1.40
2023-05-09T19:10:53.589Z,1.30
2023-05-09T19:13:20.516Z,1.33
2023-05-09T19:15:47.469Z,1.08
2023-05-09T19:18:14.283Z,1.33
2023-05-09T19:20:40.917Z,1.17
2023-05-09T19:23:07.452Z,1.00
2023-05-09T19:25:34.132Z,1.25
2023-05-09T19:28:00.786Z,1.08
2023-05-09T19:30:27.317Z,1.20
2023-05-09T19:32:53.921Z,1.20
2023-05-09T19:35:20.796Z,1.08
2023-05-09T19:37:47.454Z,1.15
2023-05-09T19:40:14.295Z,1.00
2023-05-09T19:42:41.948Z,0.95
2023-05-09T19:45:09.061Z,0.88
2023-05-09T19:47:35.728Z,1.08
2023-05-09T19:50:02.400Z,0.82
2023-05-09T19:52:29.684Z,0.70
2023-05-09T19:54:56.233Z,0.70
2023-05-09T19:57:22.857Z,0.73
2023-05-09T19:59:49.410Z,0.60
2023-05-09T20:02:15.949Z,0.70
2023-05-09T20:04:49.542Z,0.52
2023-05-09T20:07:17.643Z,0.70
2023-05-09T20:09:44.365Z,0.68
2023-05-09T20:12:11.118Z,0.65
2023-05-09T20:14:37.769Z,0.80
2023-05-09T20:17:05.391Z,0.70
2023-05-09T20:19:33.180Z,0.52
2023-05-09T20:22:01.216Z,0.90
2023-05-09T20:24:28.625Z,0.60
2023-05-09T20:26:55.261Z,0.80
2023-05-09T20:29:21.992Z,0.70
2023-05-09T20:31:48.620Z,0.80
2023-05-09T20:34:17.884Z,0.70
2023-05-09T20:36:48.411Z,0.60
2023-05-09T20:39:17.780Z,0.70
2023-05-09T20:41:48.100Z,0.90
2023-05-09T20:44:15.434Z,0.80
2023-05-09T20:46:42.287Z,0.80
2023-05-09T20:49:09.572Z,0.80
2023-05-09T20:51:36.142Z,0.82
2023-05-09T20:54:03.144Z,0.90
2023-05-09T20:56:29.963Z,0.70
2023-05-09T20:58:59.821Z,0.77
2023-05-09T21:01:27.137Z,0.52
2023-05-09T21:03:53.695Z,1.00
2023-05-09T21:06:20.245Z,0.85
2023-05-09T21:08:46.810Z,0.80
2023-05-09T21:11:13.818Z,0.93
2023-05-09T21:13:40.411Z,0.80
2023-05-09T21:16:07.140Z,0.80
2023-05-09T21:18:33.657Z,0.82
2023-05-09T21:21:02.714Z,0.90
2023-05-09T21:23:29.292Z,1.00
2023-05-09T21:25:55.820Z,1.00
2023-05-09T21:28:22.360Z,0.90
2023-05-09T21:30:52.982Z,0.93
2023-05-09T21:33:19.972Z,0.80
2023-05-09T21:35:47.147Z,0.70
2023-05-09T21:38:14.218Z,0.82
2023-05-09T21:40:41.283Z,0.85
2023-05-09T21:43:07.809Z,0.90
2023-05-09T21:45:34.377Z,0.80
2023-05-09T21:48:00.964Z,1.13
2023-05-09T21:50:27.634Z,1.20
2023-05-09T21:52:56.215Z,0.95
2023-05-09T21:55:23.033Z,0.95
2023-05-09T21:57:49.569Z,0.80
2023-05-09T22:00:17.082Z,1.10
2023-05-09T22:02:44.290Z,0.93
2023-05-09T22:05:11.750Z,1.20
2023-05-09T22:07:38.585Z,1.17
2023-05-09T22:10:05.689Z,1.00
2023-05-09T22:12:32.260Z,1.23
2023-05-09T22:14:59.114Z,1.30
2023-05-09T22:17:26.094Z,1.10
2023-05-09T22:19:52.697Z,1.17
2023-05-09T22:22:19.566Z,1.60
2023-05-09T22:24:46.236Z,1.30
2023-05-09T22:27:12.915Z,1.00
2023-05-09T22:29:39.434Z,1.20
2023-05-09T22:32:08.263Z,1.15
2023-05-09T22:34:35.352Z,1.30
2023-05-09T22:37:01.898Z,0.80
2023-05-09T22:39:28.509Z,1.20
2023-05-09T22:41:55.042Z,0.90
2023-05-09T22:44:21.937Z,0.93
2023-05-09T22:46:48.472Z,1.15
2023-05-09T22:49:15.068Z,0.90
2023-05-09T22:51:42.250Z,1.23
2023-05-09T22:54:09.062Z,1.42
2023-05-09T22:56:35.586Z,1.10
2023-05-09T22:59:02.190Z,1.30
2023-05-09T23:01:28.848Z,1.15
2023-05-09T23:03:55.392Z,1.20
2023-05-09T23:06:21.941Z,1.05
2023-05-09T23:08:48.522Z,1.00
2023-05-09T23:11:15.047Z,0.93
2023-05-09T23:13:42.297Z,1.20
2023-05-09T23:16:08.918Z,1.25
2023-05-09T23:18:35.815Z,1.73
2023-05-09T23:21:02.363Z,1.30
2023-05-09T23:23:29.027Z,1.60
2023-05-09T23:25:55.560Z,2.03
2023-05-09T23:28:25.097Z,2.00
2023-05-09T23:30:53.311Z,2.25
2023-05-09T23:33:20.418Z,1.45
2023-05-09T23:35:47.927Z,2.13
2023-05-09T23:38:14.500Z,2.72
2023-05-09T23:40:45.406Z,2.53
2023-05-09T23:43:13.278Z,2.40
2023-05-09T23:45:42.615Z,2.10
2023-05-09T23:48:09.250Z,2.47
2023-05-09T23:50:35.831Z,2.35
2023-05-09T23:53:04.850Z,1.70
2023-05-09T23:55:31.566Z,1.90
2023-05-09T23:57:58.244Z,1.67
